Time;durP1;ratioP1;P1;durP2;ratioP2;P2;SDS_P1;SDS_P2;PMS_P1;PMS_P2;Temp;Humidity;BMP_temperature;BMP_pressure;BME280_temperature;BME280_humidity;BME280_pressure;Samples;Min_cycle;Max_cycle;Signal;HPM_P1;HPM_P2
2021/07/03 00:00:26;;;;;;;;;8.67;8.67;;;;;35.63;18.07;100283.78;144166;571;132012;-66
2021/07/03 00:02:56;;;;;;;;;9.33;9.33;;;;;35.61;17.87;100286.16;144166;570;131020;-66
2021/07/03 00:05:27;;;;;;;;;8.00;8.00;;;;;35.62;17.98;100289.78;144166;573;133018;-67
2021/07/03 00:07:57;;;;;;;;;10.00;10.00;;;;;35.62;18.09;100279.34;144188;605;131021;-65
2021/07/03 00:10:27;;;;;;;;;11.67;11.00;;;;;35.65;18.32;100272.97;144160;564;132909;-66
2021/07/03 00:12:57;;;;;;;;;8.33;8.33;;;;;35.66;18.26;100268.97;144190;573;131020;-67
2021/07/03 00:15:28;;;;;;;;;10.00;10.00;;;;;35.63;18.16;100275.34;144161;661;132909;-67
2021/07/03 00:17:58;;;;;;;;;7.33;5.33;;;;;35.61;18.31;100288.97;144180;584;132010;-66
2021/07/03 00:20:28;;;;;;;;;10.33;9.33;;;;;35.60;18.20;100280.87;144172;635;131909;-69
2021/07/03 00:22:58;;;;;;;;;7.00;7.00;;;;;35.59;18.33;100285.72;144181;585;131020;-66
2021/07/03 00:25:28;;;;;;;;;8.00;7.00;;;;;35.61;18.36;100277.72;144168;640;131909;-68
2021/07/03 00:27:58;;;;;;;;;10.33;10.33;;;;;35.61;18.62;100280.53;144164;686;131020;-68
2021/07/03 00:30:28;;;;;;;;;11.00;10.33;;;;;35.62;18.68;100282.16;144159;618;132019;-67
2021/07/03 00:32:58;;;;;;;;;13.00;12.33;;;;;35.60;18.64;100298.59;144174;638;132008;-68
2021/07/03 00:35:28;;;;;;;;;9.33;9.33;;;;;35.49;18.46;100297.50;144163;600;131018;-72
2021/07/03 00:37:58;;;;;;;;;8.00;8.00;;;;;35.30;18.68;100301.09;144183;597;132014;-72
2021/07/03 00:40:29;;;;;;;;;9.00;9.00;;;;;35.26;18.91;100304.66;144157;582;131909;-72
2021/07/03 00:43:03;;;;;;;;;10.67;10.67;;;;;35.22;18.98;100300.12;144177;628;131022;-74
2021/07/03 00:45:33;;;;;;;;;8.33;8.33;;;;;35.13;19.11;100306.75;144166;569;132909;-68
2021/07/03 00:48:03;;;;;;;;;9.00;9.00;;;;;35.10;18.97;100306.69;144182;580;131021;-75
2021/07/03 00:50:34;;;;;;;;;9.33;9.00;;;;;35.07;19.20;100305.41;144167;565;131909;-67
2021/07/03 00:53:05;;;;;;;;;8.00;8.00;;;;;35.15;19.04;100309.19;144163;581;132008;-68
2021/07/03 00:55:36;;;;;;;;;9.33;9.00;;;;;35.21;18.92;100304.94;144158;567;132012;-67
2021/07/03 00:58:06;;;;;;;;;10.00;10.00;;;;;35.29;18.83;100308.72;144183;573;131020;-69
2021/07/03 01:00:36;;;;;;;;;9.00;9.00;;;;;35.32;18.57;100310.00;144157;566;132909;-68
2021/07/03 01:03:07;;;;;;;;;9.00;9.00;;;;;35.28;18.77;100305.09;144178;574;131023;-69
2021/07/03 01:05:37;;;;;;;;;10.00;10.00;;;;;35.28;18.62;100310.72;144162;565;132909;-70
2021/07/03 01:08:07;;;;;;;;;9.67;9.67;;;;;35.28;18.53;100307.91;144172;643;131021;-66
2021/07/03 01:10:38;;;;;;;;;7.00;7.00;;;;;35.30;18.67;100306.72;144170;602;132910;-72
2021/07/03 01:13:08;;;;;;;;;10.00;10.00;;;;;35.32;18.70;100302.38;144178;569;131020;-68
2021/07/03 01:15:38;;;;;;;;;11.00;11.00;;;;;35.32;18.63;100305.19;144154;573;132014;-70
2021/07/03 01:18:08;;;;;;;;;9.00;7.67;;;;;35.31;18.73;100297.09;144167;571;132012;-67
2021/07/03 01:20:39;;;;;;;;;9.00;9.00;;;;;35.31;18.79;100311.16;144163;577;131909;-65
2021/07/03 01:23:09;;;;;;;;;10.67;10.33;;;;;35.20;18.63;100313.72;144177;632;131020;-67
2021/07/03 01:25:39;;;;;;;;;8.33;8.33;;;;;35.14;18.96;100316.81;144156;617;133016;-74
2021/07/03 01:28:09;;;;;;;;;10.67;10.67;;;;;35.25;18.89;100311.44;144180;589;131020;-66
2021/07/03 01:30:39;;;;;;;;;10.00;10.00;;;;;35.10;19.14;100324.38;144155;578;131909;-70
2021/07/03 01:33:09;;;;;;;;;8.67;8.67;;;;;35.12;19.25;100319.19;144188;584;131021;-73
2021/07/03 01:35:41;;;;;;;;;10.33;10.33;;;;;35.04;19.07;100333.44;144173;620;131909;-72
2021/07/03 01:38:25;;;;;;;;;9.33;9.33;;;;;34.77;19.06;100335.94;144186;590;132010;-72
2021/07/03 01:40:56;;;;;;;;;10.00;10.00;;;;;34.74;19.52;100343.09;144158;588;131861;-70
2021/07/03 01:43:28;;;;;;;;;9.00;8.67;;;;;34.85;19.43;100338.56;144161;566;132008;-69
2021/07/03 01:45:59;;;;;;;;;9.33;9.33;;;;;34.92;19.26;100332.31;144161;569;131909;-72
2021/07/03 01:48:31;;;;;;;;;10.00;10.00;;;;;34.88;19.67;100333.41;144175;589;132012;-71
2021/07/03 01:51:02;;;;;;;;;9.00;9.00;;;;;35.00;19.52;100341.75;144157;605;132018;-70
2021/07/03 01:53:32;;;;;;;;;9.00;9.00;;;;;34.99;19.16;100342.91;144182;696;132011;-69
2021/07/03 01:56:02;;;;;;;;;9.00;9.00;;;;;34.90;19.25;100336.66;144151;579;132014;-70
2021/07/03 01:58:33;;;;;;;;;7.67;7.67;;;;;34.93;19.64;100347.16;144190;597;131020;-69
2021/07/03 02:01:04;;;;;;;;;9.33;9.00;;;;;34.89;19.54;100346.25;144171;566;131909;-71
2021/07/03 02:03:34;;;;;;;;;9.33;9.00;;;;;34.93;19.34;100344.34;144184;570;131022;-71
2021/07/03 02:06:04;;;;;;;;;8.33;8.00;;;;;35.03;19.61;100343.84;144161;656;132909;-72
2021/07/03 02:08:35;;;;;;;;;10.00;10.00;;;;;35.03;19.67;100343.03;144162;622;131022;-68
2021/07/03 02:11:05;;;;;;;;;8.00;8.00;;;;;34.97;19.58;100345.28;144166;570;131909;-67
2021/07/03 02:13:35;;;;;;;;;8.33;8.33;;;;;34.96;19.95;100338.03;144184;564;131020;-69
2021/07/03 02:16:06;;;;;;;;;9.00;9.00;;;;;34.91;19.74;100338.28;144164;564;131909;-73
2021/07/03 02:18:39;;;;;;;;;10.67;10.33;;;;;34.78;19.80;100329.94;144181;597;131020;-71
2021/07/03 02:21:09;;;;;;;;;11.00;11.00;;;;;34.72;20.05;100339.84;144153;625;131016;-69
2021/07/03 02:23:40;;;;;;;;;11.00;11.00;;;;;34.64;19.68;100338.84;144181;581;131021;-71
2021/07/03 02:26:10;;;;;;;;;14.00;13.00;;;;;34.61;19.94;100344.34;144161;636;132012;-71
2021/07/03 02:28:40;;;;;;;;;11.00;11.00;;;;;34.55;20.12;100332.56;144176;642;131020;-72
2021/07/03 02:31:10;;;;;;;;;11.33;11.00;;;;;34.51;20.55;100345.69;144156;628;132012;-68
2021/07/03 02:33:40;;;;;;;;;10.33;9.00;;;;;34.51;20.10;100340.91;144160;640;132008;-69
2021/07/03 02:36:10;;;;;;;;;12.67;12.00;;;;;34.46;20.28;100343.13;144152;604;132016;-66
2021/07/03 02:38:41;;;;;;;;;10.67;10.00;;;;;34.43;19.89;100350.28;144178;616;131021;-65
2021/07/03 02:41:11;;;;;;;;;13.33;13.00;;;;;34.24;20.94;100340.56;144157;563;131022;-70
2021/07/03 02:43:41;;;;;;;;;11.00;11.00;;;;;34.21;20.67;100349.69;144172;586;132010;-73
2021/07/03 02:46:11;;;;;;;;;12.67;10.67;;;;;34.07;21.58;100352.09;144157;580;132012;-65
2021/07/03 02:48:42;;;;;;;;;11.25;11.25;;;;;34.10;21.65;100348.56;144177;570;132010;-68
2021/07/03 02:51:12;;;;;;;;;11.67;11.67;;;;;34.10;21.17;100354.97;144167;613;132020;-64
2021/07/03 02:53:42;;;;;;;;;12.00;10.25;;;;;34.13;21.15;100353.47;144180;646;131052;-69
2021/07/03 02:56:12;;;;;;;;;8.67;7.67;;;;;33.99;20.79;100337.84;144164;718;131035;-79
2021/07/03 02:58:42;;;;;;;;;12.33;11.67;;;;;33.90;21.44;100330.72;144159;572;131020;-70
2021/07/03 03:01:13;;;;;;;;;11.67;11.00;;;;;33.91;21.15;100335.97;144150;613;131909;-68
2021/07/03 03:03:44;;;;;;;;;13.00;13.00;;;;;33.83;21.91;100332.13;144178;611;131020;-67
2021/07/03 03:06:15;;;;;;;;;14.33;14.33;;;;;33.84;21.96;100342.22;144159;575;131909;-69
2021/07/03 03:08:45;;;;;;;;;12.33;11.67;;;;;33.79;21.23;100322.00;144175;647;131021;-68
2021/07/03 03:11:15;;;;;;;;;13.67;13.33;;;;;33.84;21.55;100324.56;144155;587;131016;-69
2021/07/03 03:13:45;;;;;;;;;1.67;1.67;;;;;33.81;21.96;100330.88;144184;657;132012;-69
2021/07/03 03:16:15;;;;;;;;;10.67;10.00;;;;;33.66;21.85;100340.84;144168;592;132013;-67
2021/07/03 03:18:45;;;;;;;;;13.00;12.67;;;;;33.74;21.92;100340.69;144177;687;132010;-68
2021/07/03 03:21:15;;;;;;;;;9.00;9.00;;;;;33.63;20.84;100342.37;144159;573;131909;-71
2021/07/03 03:23:45;;;;;;;;;11.33;11.33;;;;;33.65;20.64;100340.03;144159;706;132012;-68
2021/07/03 03:26:16;;;;;;;;;11.00;10.00;;;;;33.64;20.98;100330.00;144158;622;132012;-68
2021/07/03 03:28:46;;;;;;;;;12.00;12.00;;;;;33.61;21.04;100333.47;144174;563;132010;-67
2021/07/03 03:31:16;;;;;;;;;13.00;13.00;;;;;33.60;20.92;100334.66;144152;574;132014;-66
2021/07/03 03:33:47;;;;;;;;;12.00;11.67;;;;;33.69;20.63;100340.94;144174;616;131020;-67
2021/07/03 03:36:17;;;;;;;;;12.00;12.00;;;;;33.59;20.19;100341.44;144157;578;131909;-70
2021/07/03 03:38:47;;;;;;;;;10.00;10.00;;;;;33.61;20.33;100333.47;144174;571;132035;-69
2021/07/03 03:41:20;;;;;;;;;10.00;10.00;;;;;33.55;19.91;100318.09;144163;564;131999;-67
2021/07/03 03:43:52;;;;;;;;;9.00;9.00;;;;;33.48;19.12;100351.53;144181;570;131020;-69
2021/07/03 03:46:23;;;;;;;;;5.33;5.33;;;;;33.49;18.96;100341.94;144166;608;131909;-66
2021/07/03 03:48:53;;;;;;;;;10.33;10.33;;;;;33.52;19.20;100360.84;144162;563;132010;-69
2021/07/03 03:51:24;;;;;;;;;10.00;9.33;;;;;33.57;18.39;100355.81;144153;577;132015;-67
2021/07/03 03:53:54;;;;;;;;;11.33;11.33;;;;;33.49;18.18;100359.56;144179;574;131021;-65
2021/07/03 03:56:24;;;;;;;;;12.33;11.67;;;;;33.57;18.22;100367.03;144157;569;132909;-68
2021/07/03 03:58:54;;;;;;;;;9.00;9.00;;;;;33.61;17.54;100361.50;144174;565;131021;-68
2021/07/03 04:01:24;;;;;;;;;8.00;8.00;;;;;33.64;18.01;100354.41;144163;586;132909;-68
2021/07/03 04:03:54;;;;;;;;;8.67;7.33;;;;;33.62;17.71;100373.56;144189;563;131022;-66
2021/07/03 04:06:25;;;;;;;;;10.33;10.33;;;;;33.69;17.70;100380.19;144165;709;132030;-64
2021/07/03 04:08:55;;;;;;;;;10.00;9.00;;;;;33.61;18.06;100381.12;144181;626;131019;-64
2021/07/03 04:11:25;;;;;;;;;8.67;8.67;;;;;33.72;19.09;100384.28;144161;582;131909;-67
2021/07/03 04:13:55;;;;;;;;;10.00;10.00;;;;;33.90;18.47;100378.41;144161;597;131020;-66
2021/07/03 04:16:25;;;;;;;;;10.67;10.67;;;;;34.00;18.95;100361.12;144153;670;131021;-69
2021/07/03 04:18:56;;;;;;;;;10.00;10.00;;;;;34.03;18.59;100356.75;144176;601;131022;-66
2021/07/03 04:21:26;;;;;;;;;8.67;8.33;;;;;34.11;19.35;100355.81;144154;632;132015;-66
2021/07/03 04:23:56;;;;;;;;;10.67;10.00;;;;;34.17;18.96;100368.41;144174;564;132010;-66
2021/07/03 04:26:26;;;;;;;;;9.33;9.33;;;;;34.22;18.84;100372.94;144153;625;132909;-64
2021/07/03 04:28:57;;;;;;;;;8.00;8.00;;;;;34.17;19.16;100370.41;144178;662;132010;-66
2021/07/03 04:31:27;;;;;;;;;14.00;14.00;;;;;34.14;19.29;100377.53;144164;600;132047;-64
2021/07/03 04:33:57;;;;;;;;;10.00;10.00;;;;;34.15;19.74;100385.59;144179;599;132010;-66
2021/07/03 04:36:29;;;;;;;;;9.33;9.33;;;;;34.07;20.27;100371.72;144165;577;131909;-64
2021/07/03 04:38:59;;;;;;;;;11.33;11.33;;;;;34.04;20.12;100389.25;144160;564;132012;-65
2021/07/03 04:41:30;;;;;;;;;7.00;7.00;;;;;33.93;18.78;100400.97;144161;593;132909;-66
2021/07/03 04:44:00;;;;;;;;;9.00;9.00;;;;;34.04;19.13;100400.47;144174;657;131022;-64
2021/07/03 04:46:30;;;;;;;;;8.67;7.67;;;;;33.98;19.22;100413.94;144164;648;132012;-64
2021/07/03 04:49:01;;;;;;;;;12.00;11.00;;;;;34.06;18.66;100418.59;144180;563;132010;-65
2021/07/03 04:51:31;;;;;;;;;10.33;10.33;;;;;34.08;18.51;100423.87;144166;598;131909;-67
2021/07/03 04:54:02;;;;;;;;;8.67;8.00;;;;;34.06;18.73;100420.56;144180;593;132012;-68
2021/07/03 04:56:32;;;;;;;;;6.67;6.67;;;;;34.04;19.19;100425.72;144177;576;131018;-69
2021/07/03 04:59:02;;;;;;;;;11.67;10.67;;;;;34.09;19.57;100420.69;144177;637;131021;-64
2021/07/03 05:01:32;;;;;;;;;9.00;8.67;;;;;34.06;18.79;100429.00;144158;576;131023;-68
2021/07/03 05:04:02;;;;;;;;;12.00;10.67;;;;;34.11;18.56;100418.34;144158;574;131020;-67
2021/07/03 05:06:32;;;;;;;;;9.00;9.00;;;;;34.05;17.75;100430.16;144153;572;131020;-67
2021/07/03 05:09:02;;;;;;;;;7.33;7.33;;;;;34.03;18.57;100432.50;144190;563;131015;-66
2021/07/03 05:11:32;;;;;;;;;10.33;10.33;;;;;33.94;18.08;100432.63;144157;618;132909;-68
2021/07/03 05:14:02;;;;;;;;;8.00;8.00;;;;;33.88;18.02;100435.69;144183;593;131022;-67
2021/07/03 05:16:33;;;;;;;;;7.00;7.00;;;;;33.94;17.86;100453.09;144166;591;132012;-68
2021/07/03 05:19:03;;;;;;;;;7.33;7.00;;;;;33.95;18.25;100442.66;144178;649;132010;-67
2021/07/03 05:21:33;;;;;;;;;8.33;8.00;;;;;33.99;18.42;100447.25;144174;573;132022;-66
2021/07/03 05:24:05;;;;;;;;;9.67;8.33;;;;;33.96;18.04;100450.75;144183;631;131020;-66
2021/07/03 05:26:36;;;;;;;;;4.67;3.33;;;;;34.10;18.78;100449.56;144168;578;131909;-66
2021/07/03 05:29:06;;;;;;;;;8.00;8.00;;;;;34.23;19.96;100465.22;144161;597;132012;-66
2021/07/03 05:31:36;;;;;;;;;10.67;10.33;;;;;34.28;19.67;100456.53;144155;571;132012;-65
2021/07/03 05:34:06;;;;;;;;;10.00;9.00;;;;;34.30;18.79;100456.97;144178;576;131020;-65
2021/07/03 05:36:37;;;;;;;;;6.67;6.67;;;;;34.19;18.82;100441.00;144158;565;132909;-65
2021/07/03 05:39:07;;;;;;;;;10.33;10.00;;;;;34.34;18.92;100459.06;144170;602;132010;-65
2021/07/03 05:41:37;;;;;;;;;9.00;9.00;;;;;34.61;18.50;100460.31;144158;591;132012;-65
2021/07/03 05:44:07;;;;;;;;;7.33;7.00;;;;;34.49;18.06;100471.56;144182;618;132013;-64
2021/07/03 05:46:38;;;;;;;;;9.33;9.33;;;;;34.69;17.97;100478.97;144174;570;132014;-63
2021/07/03 05:49:09;;;;;;;;;9.00;9.00;;;;;34.75;18.37;100482.34;144183;566;132010;-63
2021/07/03 05:51:39;;;;;;;;;8.33;6.67;;;;;34.79;18.47;100476.84;144171;591;131909;-62
2021/07/03 05:54:09;;;;;;;;;8.00;8.00;;;;;34.98;18.29;100467.72;144167;603;131021;-68
2021/07/03 05:56:39;;;;;;;;;9.00;9.00;;;;;35.29;18.33;100474.56;144167;593;132909;-66
2021/07/03 05:59:10;;;;;;;;;9.00;8.67;;;;;35.65;18.43;100467.03;144189;564;131022;-68
2021/07/03 06:01:40;;;;;;;;;7.00;7.00;;;;;35.93;17.53;100465.28;144160;634;132016;-65
2021/07/03 06:04:10;;;;;;;;;10.33;10.33;;;;;36.10;17.24;100464.03;144173;573;132020;-72
2021/07/03 06:06:40;;;;;;;;;7.67;7.67;;;;;36.25;16.48;100471.63;144167;571;131017;-69
2021/07/03 06:09:10;;;;;;;;;8.00;8.00;;;;;36.42;16.27;100489.28;144190;590;131021;-67
2021/07/03 06:11:40;;;;;;;;;6.67;6.67;;;;;36.43;16.14;100493.72;144172;564;132909;-65
2021/07/03 06:14:11;;;;;;;;;8.00;8.00;;;;;36.30;16.23;100498.66;144187;600;131021;-69
2021/07/03 06:16:41;;;;;;;;;7.00;7.00;;;;;36.16;16.74;100493.56;144163;627;131908;-69
2021/07/03 06:19:11;;;;;;;;;7.33;7.33;;;;;36.05;16.76;100498.13;144161;589;132012;-69
2021/07/03 06:21:41;;;;;;;;;10.00;9.00;;;;;35.92;16.87;100503.81;144155;644;132921;-69
2021/07/03 06:24:13;;;;;;;;;9.67;8.00;;;;;35.83;17.23;100504.03;144179;646;132010;-65
2021/07/03 06:26:43;;;;;;;;;9.00;9.00;;;;;35.74;17.51;100500.59;144163;575;132909;-69
2021/07/03 06:29:13;;;;;;;;;9.33;9.33;;;;;35.75;17.87;100512.66;144183;624;131021;-66
2021/07/03 06:31:43;;;;;;;;;7.67;7.67;;;;;35.69;18.13;100501.72;144164;566;131909;-67
2021/07/03 06:34:13;;;;;;;;;10.00;10.00;;;;;35.64;18.22;100504.78;144176;597;132012;-62
2021/07/03 06:36:44;;;;;;;;;10.00;10.00;;;;;35.62;18.04;100507.13;144165;617;132909;-66
2021/07/03 06:39:14;;;;;;;;;8.33;8.33;;;;;35.51;17.60;100500.41;144177;588;131020;-67
2021/07/03 06:41:44;;;;;;;;;8.67;8.67;;;;;35.51;17.65;100514.47;144165;611;131016;-72
2021/07/03 06:44:14;;;;;;;;;11.00;11.00;;;;;35.48;17.57;100512.38;144166;639;131021;-68
2021/07/03 06:46:46;;;;;;;;;9.00;9.00;;;;;35.44;17.03;100519.91;144162;574;131909;-70
2021/07/03 06:49:16;;;;;;;;;8.00;8.00;;;;;35.36;17.39;100514.09;144182;586;131020;-69
2021/07/03 06:51:46;;;;;;;;;9.67;9.00;;;;;35.36;17.40;100519.72;144168;576;131909;-71
2021/07/03 06:54:17;;;;;;;;;8.33;8.00;;;;;35.38;17.74;100519.38;144184;569;131020;-70
2021/07/03 06:56:47;;;;;;;;;10.00;10.00;;;;;35.38;17.54;100520.16;144164;603;132909;-71
2021/07/03 06:59:17;;;;;;;;;9.67;9.33;;;;;35.55;17.61;100526.66;144172;583;132010;-72
2021/07/03 07:01:47;;;;;;;;;8.00;8.00;;;;;35.58;17.81;100520.31;144177;636;132016;-68
2021/07/03 07:04:20;;;;;;;;;11.00;11.00;;;;;35.62;17.64;100520.41;144183;620;131020;-68
2021/07/03 07:06:51;;;;;;;;;10.67;10.00;;;;;35.77;17.61;100527.19;144162;597;132013;-68
2021/07/03 07:09:22;;;;;;;;;10.67;9.67;;;;;35.86;17.51;100527.81;144160;654;132012;-66
2021/07/03 07:11:54;;;;;;;;;8.67;8.67;;;;;35.87;17.22;100531.44;144162;607;132012;-66
2021/07/03 07:14:24;;;;;;;;;11.67;10.67;;;;;35.88;17.54;100531.06;144176;565;131021;-65
2021/07/03 07:16:54;;;;;;;;;8.33;8.33;;;;;35.98;17.97;100533.34;144160;578;131016;-67
2021/07/03 07:19:24;;;;;;;;;10.33;9.00;;;;;36.18;17.60;100530.59;144179;626;131020;-66
2021/07/03 07:21:55;;;;;;;;;10.00;9.67;;;;;36.24;17.11;100517.03;144153;612;132909;-65
2021/07/03 07:24:25;;;;;;;;;3.67;3.00;;;;;36.24;17.01;100512.22;144183;610;131020;-65
2021/07/03 07:26:55;;;;;;;;;8.33;8.33;;;;;36.23;17.11;100515.41;144179;687;131909;-65
2021/07/03 07:29:26;;;;;;;;;12.33;11.00;;;;;36.30;17.24;100517.56;144178;580;131021;-65
2021/07/03 07:31:56;;;;;;;;;11.33;10.67;;;;;36.47;17.41;100521.94;144156;662;131909;-67
2021/07/03 07:34:27;;;;;;;;;8.33;8.33;;;;;36.58;17.37;100519.41;144166;571;132010;-66
2021/07/03 07:36:57;;;;;;;;;10.33;10.33;;;;;36.60;17.59;100517.03;144163;565;131909;-65
2021/07/03 07:39:27;;;;;;;;;9.00;9.00;;;;;36.58;17.05;100514.56;144178;570;131022;-66
2021/07/03 07:41:58;;;;;;;;;11.33;11.33;;;;;36.49;16.99;100522.38;144161;563;132020;-66
2021/07/03 07:44:28;;;;;;;;;9.33;9.00;;;;;36.39;17.34;100518.97;144178;565;132010;-69
2021/07/03 07:46:58;;;;;;;;;11.00;11.00;;;;;36.33;17.40;100519.63;144149;593;132908;-68
2021/07/03 07:49:28;;;;;;;;;10.00;9.67;;;;;36.28;17.35;100514.31;144178;588;131020;-69
2021/07/03 07:51:58;;;;;;;;;9.00;8.00;;;;;36.43;17.77;100518.25;144167;564;132013;-68
2021/07/03 07:54:29;;;;;;;;;10.67;10.00;;;;;36.77;17.50;100516.56;144176;573;132010;-69
2021/07/03 07:56:59;;;;;;;;;10.00;10.00;;;;;36.97;17.28;100516.53;144157;628;131909;-68
2021/07/03 07:59:29;;;;;;;;;10.33;10.33;;;;;37.18;17.28;100507.69;144154;590;131021;-68
2021/07/03 08:01:59;;;;;;;;;10.33;10.00;;;;;37.44;17.07;100506.13;144154;617;132014;-68
2021/07/03 08:04:30;;;;;;;;;9.00;9.00;;;;;37.70;16.58;100503.72;144174;614;132008;-68
2021/07/03 08:07:00;;;;;;;;;10.67;10.67;;;;;37.93;16.08;100501.69;144156;588;131016;-68
2021/07/03 08:09:30;;;;;;;;;9.67;9.67;;;;;38.14;16.41;100500.38;144176;601;131020;-69
2021/07/03 08:12:00;;;;;;;;;9.00;9.00;;;;;38.32;15.75;100506.28;144160;588;131914;-69
2021/07/03 08:14:30;;;;;;;;;10.67;10.67;;;;;38.48;15.47;100503.28;144176;596;132010;-68
2021/07/03 08:17:00;;;;;;;;;8.33;8.33;;;;;38.56;15.60;100503.38;144168;608;131909;-69
2021/07/03 08:19:32;;;;;;;;;9.67;9.67;;;;;38.61;15.06;100505.84;144176;647;131029;-67
2021/07/03 08:22:02;;;;;;;;;10.33;10.33;;;;;38.77;15.85;100514.09;144150;575;132909;-67
2021/07/03 08:24:33;;;;;;;;;9.33;9.33;;;;;38.95;15.24;100508.69;144161;632;131020;-69
2021/07/03 08:27:03;;;;;;;;;11.33;10.67;;;;;39.03;15.85;100513.19;144158;585;132012;-69
2021/07/03 08:29:33;;;;;;;;;9.67;9.00;;;;;39.13;15.62;100525.00;144181;601;131023;-67
2021/07/03 08:32:04;;;;;;;;;9.67;9.67;;;;;39.22;15.00;100522.66;144158;575;132020;-68
2021/07/03 08:34:34;;;;;;;;;11.00;10.00;;;;;39.32;15.78;100532.47;144177;575;132010;-68
2021/07/03 08:37:04;;;;;;;;;22.00;21.50;;;;;39.41;15.30;100523.69;144158;585;131909;-68
2021/07/03 08:39:35;;;;;;;;;12.33;12.00;;;;;39.50;15.71;100532.63;144172;613;132001;-68
2021/07/03 08:42:06;;;;;;;;;12.33;11.00;;;;;39.48;15.10;100535.03;144162;571;133018;-69
2021/07/03 08:44:36;;;;;;;;;10.00;10.00;;;;;39.40;15.57;100533.38;144176;569;131020;-70
2021/07/03 08:47:07;;;;;;;;;10.00;9.33;;;;;39.35;14.97;100529.66;144160;596;132020;-70
2021/07/03 08:49:37;;;;;;;;;12.00;11.00;;;;;39.35;14.69;100532.47;144161;570;131021;-69
2021/07/03 08:52:08;;;;;;;;;9.00;9.00;;;;;39.43;14.20;100532.59;144162;671;132032;-69
2021/07/03 08:54:38;;;;;;;;;11.00;11.00;;;;;39.47;14.75;100527.75;144174;569;132012;-67
2021/07/03 08:57:11;;;;;;;;;10.00;9.00;;;;;39.46;14.06;100528.97;144152;577;132013;-68
2021/07/03 08:59:41;;;;;;;;;7.00;7.00;;;;;39.53;14.04;100534.69;144181;644;132012;-67
2021/07/03 09:02:11;;;;;;;;;8.00;8.00;;;;;39.58;14.87;100522.19;144167;610;131909;-68
2021/07/03 09:04:42;;;;;;;;;10.00;6.67;;;;;39.65;14.83;100519.44;144185;564;131021;-68
2021/07/03 09:07:21;;;;;;;;;8.67;8.33;;;;;39.69;14.64;100519.47;144172;581;131910;-68
2021/07/03 09:09:52;;;;;;;;;10.67;10.00;;;;;39.80;14.35;100509.00;144184;658;131012;-68
2021/07/03 09:12:32;;;;;;;;;12.33;12.33;;;;;39.88;14.75;100513.56;144157;647;131910;-68
2021/07/03 09:15:24;;;;;;;;;7.00;7.00;;;;;40.05;13.74;100505.56;144174;563;131012;-68
2021/07/03 09:17:59;;;;;;;;;9.00;8.67;;;;;40.19;13.46;100505.63;144165;581;131909;-67
2021/07/03 09:20:53;;;;;;;;;13.67;12.67;;;;;40.36;13.90;100496.84;144173;609;131021;-67
2021/07/03 09:23:34;;;;;;;;;9.33;9.33;;;;;40.39;14.40;100496.84;144167;610;132018;-68
2021/07/03 09:26:09;;;;;;;;;9.67;8.67;;;;;40.50;13.47;100496.91;144177;627;132010;-69
2021/07/03 09:28:44;;;;;;;;;11.00;11.00;;;;;40.56;13.56;100492.47;144161;583;132909;-69
2021/07/03 09:31:17;;;;;;;;;16.00;13.33;;;;;40.60;13.69;100489.66;144176;675;132010;-67
2021/07/03 09:33:49;;;;;;;;;11.33;11.33;;;;;40.59;14.43;100488.03;144166;570;132006;-68
2021/07/03 09:36:26;;;;;;;;;12.67;11.33;;;;;40.59;14.00;100490.84;144171;571;132008;-69
2021/07/03 09:39:00;;;;;;;;;10.00;10.00;;;;;40.70;13.69;100479.53;144150;618;132909;-69
2021/07/03 09:41:37;;;;;;;;;10.67;10.67;;;;;40.68;13.83;100462.12;144155;745;131021;-68
2021/07/03 09:44:12;;;;;;;;;10.00;10.00;;;;;40.69;14.48;100470.22;144150;608;132019;-69
2021/07/03 09:46:51;;;;;;;;;9.00;9.00;;;;;40.77;14.32;100475.94;144174;594;132010;-68
2021/07/03 09:49:25;;;;;;;;;12.00;12.00;;;;;40.84;14.23;100468.25;144159;609;132038;-68
2021/07/03 09:51:57;;;;;;;;;10.00;9.67;;;;;40.87;13.69;100458.16;144174;652;131012;-69
2021/07/03 09:54:30;;;;;;;;;9.33;9.33;;;;;40.86;14.19;100470.72;144157;570;132012;-69
2021/07/03 09:57:00;;;;;;;;;13.00;13.00;;;;;40.92;13.83;100454.91;144174;569;131022;-69
2021/07/03 09:59:32;;;;;;;;;14.00;12.67;;;;;40.98;14.15;100458.16;144166;564;132012;-69
2021/07/03 10:02:06;;;;;;;;;12.33;12.00;;;;;41.03;14.05;100461.41;144172;563;132010;-68
2021/07/03 10:04:39;;;;;;;;;13.00;13.00;;;;;41.13;14.29;100462.62;144153;678;131909;-69
2021/07/03 10:07:17;;;;;;;;;7.33;7.00;;;;;41.14;14.14;100458.56;144159;628;132010;-69
2021/07/03 10:10:03;;;;;;;;;11.00;11.00;;;;;40.80;14.41;100441.94;144158;632;131020;-69
2021/07/03 10:12:37;;;;;;;;;12.00;11.33;;;;;40.89;14.25;100458.56;144172;619;132010;-69
2021/07/03 10:15:08;;;;;;;;;13.67;12.00;;;;;40.99;13.93;100457.75;144153;603;132908;-68
2021/07/03 10:17:39;;;;;;;;;12.33;12.33;;;;;41.14;14.47;100454.94;144172;597;131012;-70
2021/07/03 10:20:16;;;;;;;;;14.67;14.67;;;;;41.26;13.48;100457.37;144154;636;131909;-69
2021/07/03 10:22:54;;;;;;;;;9.00;9.00;;;;;41.26;14.03;100446.03;144184;585;132010;-69
2021/07/03 10:25:45;;;;;;;;;11.67;11.67;;;;;41.36;13.79;100440.75;144165;563;131909;-69
2021/07/03 10:28:17;;;;;;;;;12.67;12.67;;;;;41.40;13.70;100427.37;144175;566;131021;-69
2021/07/03 10:30:50;;;;;;;;;11.67;11.67;;;;;41.54;13.55;100433.03;144152;570;131909;-69
2021/07/03 10:33:23;;;;;;;;;10.67;10.00;;;;;41.64;13.58;100420.06;144165;603;131020;-69
2021/07/03 10:35:56;;;;;;;;;14.67;14.67;;;;;41.78;13.52;100419.22;144155;677;131909;-69
2021/07/03 11:26:34;;;;;;;;;0.00;0.00;;;;;30.05;32.71;100514.87;146701;563;45023;-76
2021/07/03 11:29:05;;;;;;;;;0.00;0.00;;;;;29.98;33.57;100511.19;146623;569;46929;-75
2021/07/03 11:32:56;;;;;;;;;0.00;0.00;;;;;30.11;33.23;100499.78;148254;65;58681;-75
2021/07/03 11:35:29;;;;;;;;;0.00;0.00;;;;;30.50;32.36;100499.78;146629;672;46019;-72
2021/07/03 11:38:03;;;;;;;;;0.00;0.00;;;;;30.59;33.36;100507.84;146487;592;68762;-77
2021/07/03 11:50:01;;;;;;;;;0.00;0.00;;;;;31.80;31.22;100513.44;146701;569;45012;-71
2021/07/03 11:52:46;;;;;;;;;0.50;0.50;;;;;31.68;31.21;100527.47;167628;65;61254;-76
2021/07/03 11:55:23;;;;;;;;;0.00;0.00;;;;;34.06;28.13;100522.13;146404;62;60244;-84
2021/07/03 11:57:58;;;;;;;;;0.00;0.00;;;;;34.05;28.83;100520.44;146277;579;65578;-82
2021/07/03 12:03:46;;;;;;;;;0.00;0.00;;;;;32.79;30.46;100504.00;146700;564;46012;-68
2021/07/03 12:06:27;;;;;;;;;1.00;1.00;;;;;32.61;29.71;100499.00;146397;730;69240;-70
2021/07/03 12:11:17;;;;;;;;;0.00;0.00;;;;;32.16;31.86;100499.09;146709;564;45023;-69
2021/07/03 12:17:10;;;;;;;;;0.00;0.00;;;;;31.61;30.42;100520.25;146328;149;109557;-64
2021/07/03 12:19:44;;;;;;;;;0.00;0.00;;;;;31.45;30.18;100519.34;146190;69;69761;-70
2021/07/03 12:22:18;;;;;;;;;;;;;;;-146.28;100.00;62721.78;146699;65;68937;-67
2021/07/03 12:25:04;;;;;;;;;;;;;;;;;;146768;962;46022;-72
2021/07/03 12:27:36;;;;;;;;;;;;;;;;;;146729;960;46021;-66
2021/07/03 12:31:14;;;;;;;;;;;;;;;31.67;26.14;100495.09;146827;962;46023;-70
2021/07/03 12:33:48;;;;;;;;;;;;;;;31.39;26.31;100493.00;145715;65;71172;-71
2021/07/03 12:43:16;;;;;;;;;0.00;0.00;;;;;35.73;25.77;100433.47;145337;65;211011;-77
2021/07/03 15:01:39;;;;;;;;;15.00;15.00;;;;;34.00;29.26;100358.31;144288;65;131027;-78